sensor_id;sensor_type;location;lat;lon;timestamp;pressure;altitude;pressure_sealevel;temperature;humidity
34124;BME280;13153;52.316;21.166;2023-03-13T00:03:46;99863.84;;;6.19;49.70
34124;BME280;13153;52.316;21.166;2023-03-13T00:06:13;99852.41;;;6.15;49.58
34124;BME280;13153;52.316;21.166;2023-03-13T00:08:40;99852.47;;;6.17;49.73
34124;BME280;13153;52.316;21.166;2023-03-13T00:11:09;99856.97;;;6.21;49.64
34124;BME280;13153;52.316;21.166;2023-03-13T00:13:35;99853.56;;;6.23;50.18
34124;BME280;13153;52.316;21.166;2023-03-13T00:16:04;99857.19;;;6.27;49.47
34124;BME280;13153;52.316;21.166;2023-03-13T00:18:30;99858.75;;;6.22;50.21
34124;BME280;13153;52.316;21.166;2023-03-13T00:21:07;99851.91;;;6.25;49.91
34124;BME280;13153;52.316;21.166;2023-03-13T00:23:36;99847.41;;;6.21;49.65
34124;BME280;13153;52.316;21.166;2023-03-13T00:26:09;99858.75;;;6.22;49.58
34124;BME280;13153;52.316;21.166;2023-03-13T00:28:38;99854.81;;;6.09;50.14
34124;BME280;13153;52.316;21.166;2023-03-13T00:31:09;99859.47;;;6.18;50.00
34124;BME280;13153;52.316;21.166;2023-03-13T00:33:38;99851.75;;;6.21;49.93
34124;BME280;13153;52.316;21.166;2023-03-13T00:36:20;99856.97;;;6.21;49.81
34124;BME280;13153;52.316;21.166;2023-03-13T00:38:47;99861.34;;;6.22;50.15
34124;BME280;13153;52.316;21.166;2023-03-13T00:41:26;99861.41;;;6.23;49.69
34124;BME280;13153;52.316;21.166;2023-03-13T00:43:53;99862.41;;;6.27;49.87
34124;BME280;13153;52.316;21.166;2023-03-13T00:46:22;99859.34;;;6.15;50.08
34124;BME280;13153;52.316;21.166;2023-03-13T00:48:49;99856.13;;;6.22;50.30
34124;BME280;13153;52.316;21.166;2023-03-13T00:51:17;99860.53;;;6.23;50.93
34124;BME280;13153;52.316;21.166;2023-03-13T00:53:43;99856.06;;;6.20;50.38
34124;BME280;13153;52.316;21.166;2023-03-13T00:56:13;99858.19;;;6.31;49.98
34124;BME280;13153;52.316;21.166;2023-03-13T00:58:42;99857.41;;;6.33;49.72
34124;BME280;13153;52.316;21.166;2023-03-13T01:01:25;99863.50;;;6.34;50.19
34124;BME280;13153;52.316;21.166;2023-03-13T01:04:02;99857.47;;;6.36;49.84
34124;BME280;13153;52.316;21.166;2023-03-13T01:06:31;99849.84;;;6.42;49.54
34124;BME280;13153;52.316;21.166;2023-03-13T01:08:58;99853.00;;;6.32;49.81
34124;BME280;13153;52.316;21.166;2023-03-13T01:11:28;99845.34;;;6.38;49.79
34124;BME280;13153;52.316;21.166;2023-03-13T01:13:57;99840.13;;;6.38;49.85
34124;BME280;13153;52.316;21.166;2023-03-13T01:16:24;99837.56;;;6.40;50.06
34124;BME280;13153;52.316;21.166;2023-03-13T01:18:54;99832.16;;;6.34;50.22
34124;BME280;13153;52.316;21.166;2023-03-13T01:21:22;99823.50;;;6.36;49.76
34124;BME280;13153;52.316;21.166;2023-03-13T01:23:50;99822.66;;;6.37;50.36
34124;BME280;13153;52.316;21.166;2023-03-13T01:26:17;99822.16;;;6.47;50.16
34124;BME280;13153;52.316;21.166;2023-03-13T01:28:44;99819.22;;;6.38;50.10
34124;BME280;13153;52.316;21.166;2023-03-13T01:33:44;99815.16;;;6.46;49.63
34124;BME280;13153;52.316;21.166;2023-03-13T01:36:11;99806.47;;;6.47;49.81
34124;BME280;13153;52.316;21.166;2023-03-13T01:38:38;99807.50;;;6.52;50.00
34124;BME280;13153;52.316;21.166;2023-03-13T01:41:06;99801.28;;;6.49;50.28
34124;BME280;13153;52.316;21.166;2023-03-13T01:43:35;99797.25;;;6.58;49.31
34124;BME280;13153;52.316;21.166;2023-03-13T01:51:29;99764.88;;;6.53;50.02
34124;BME280;13153;52.316;21.166;2023-03-13T01:54:05;99763.28;;;6.58;49.83
34124;BME280;13153;52.316;21.166;2023-03-13T01:56:46;99759.84;;;6.59;49.54
34124;BME280;13153;52.316;21.166;2023-03-13T01:59:18;99764.22;;;6.60;49.89
34124;BME280;13153;52.316;21.166;2023-03-13T02:01:48;99770.81;;;6.49;49.89
34124;BME280;13153;52.316;21.166;2023-03-13T02:04:17;99758.50;;;6.45;49.78
34124;BME280;13153;52.316;21.166;2023-03-13T02:06:50;99760.56;;;6.55;50.14
34124;BME280;13153;52.316;21.166;2023-03-13T02:09:21;99773.44;;;6.49;49.64
34124;BME280;13153;52.316;21.166;2023-03-13T02:12:05;99766.50;;;6.50;49.69
34124;BME280;13153;52.316;21.166;2023-03-13T02:14:37;99770.28;;;6.59;49.66
34124;BME280;13153;52.316;21.166;2023-03-13T02:17:06;99763.44;;;6.63;49.14
34124;BME280;13153;52.316;21.166;2023-03-13T02:19:49;99767.97;;;6.69;49.82
34124;BME280;13153;52.316;21.166;2023-03-13T02:25:08;99755.66;;;6.65;49.05
34124;BME280;13153;52.316;21.166;2023-03-13T02:27:37;99772.94;;;6.61;49.61
34124;BME280;13153;52.316;21.166;2023-03-13T02:30:05;99753.81;;;6.62;49.67
34124;BME280;13153;52.316;21.166;2023-03-13T02:32:31;99767.91;;;6.67;49.26
34124;BME280;13153;52.316;21.166;2023-03-13T02:35:07;99754.75;;;6.64;49.52
34124;BME280;13153;52.316;21.166;2023-03-13T02:37:35;99762.69;;;6.67;49.43
34124;BME280;13153;52.316;21.166;2023-03-13T02:40:07;99752.78;;;6.57;49.61
34124;BME280;13153;52.316;21.166;2023-03-13T02:42:42;99759.00;;;6.60;49.72
34124;BME280;13153;52.316;21.166;2023-03-13T02:45:13;99751.41;;;6.68;49.80
34124;BME280;13153;52.316;21.166;2023-03-13T02:47:40;99757.16;;;6.58;49.92
34124;BME280;13153;52.316;21.166;2023-03-13T02:50:06;99756.69;;;6.70;49.89
34124;BME280;13153;52.316;21.166;2023-03-13T02:52:41;99753.91;;;6.65;50.24
34124;BME280;13153;52.316;21.166;2023-03-13T02:55:15;99754.84;;;6.67;50.31
34124;BME280;13153;52.316;21.166;2023-03-13T02:57:43;99745.34;;;6.69;50.63
34124;BME280;13153;52.316;21.166;2023-03-13T03:00:10;99747.25;;;6.75;50.13
34124;BME280;13153;52.316;21.166;2023-03-13T03:02:42;99757.56;;;6.70;50.51
34124;BME280;13153;52.316;21.166;2023-03-13T03:05:09;99769.84;;;6.73;50.84
34124;BME280;13153;52.316;21.166;2023-03-13T03:07:35;99769.19;;;6.80;50.54
34124;BME280;13153;52.316;21.166;2023-03-13T03:10:01;99767.72;;;6.88;50.41
34124;BME280;13153;52.316;21.166;2023-03-13T03:12:28;99758.16;;;6.88;50.43
34124;BME280;13153;52.316;21.166;2023-03-13T03:14:53;99762.38;;;6.85;50.95
34124;BME280;13153;52.316;21.166;2023-03-13T03:17:19;99761.41;;;6.81;50.79
34124;BME280;13153;52.316;21.166;2023-03-13T03:19:45;99767.47;;;6.80;50.95
34124;BME280;13153;52.316;21.166;2023-03-13T03:22:11;99754.66;;;6.88;50.84
34124;BME280;13153;52.316;21.166;2023-03-13T03:24:37;99742.41;;;6.87;50.95
34124;BME280;13153;52.316;21.166;2023-03-13T03:27:02;99752.97;;;6.90;50.84
34124;BME280;13153;52.316;21.166;2023-03-13T03:29:31;99749.41;;;6.88;51.03
34124;BME280;13153;52.316;21.166;2023-03-13T03:31:56;99752.28;;;6.97;50.98
34124;BME280;13153;52.316;21.166;2023-03-13T03:34:22;99747.09;;;6.99;51.05
34124;BME280;13153;52.316;21.166;2023-03-13T03:36:48;99744.38;;;6.95;51.06
34124;BME280;13153;52.316;21.166;2023-03-13T03:39:14;99740.00;;;6.94;51.50
34124;BME280;13153;52.316;21.166;2023-03-13T03:41:39;99746.94;;;6.92;51.49
34124;BME280;13153;52.316;21.166;2023-03-13T03:44:05;99750.22;;;6.85;51.89
34124;BME280;13153;52.316;21.166;2023-03-13T03:46:31;99749.63;;;6.95;51.78
34124;BME280;13153;52.316;21.166;2023-03-13T03:48:57;99746.22;;;6.98;51.48
34124;BME280;13153;52.316;21.166;2023-03-13T03:51:22;99745.38;;;6.99;51.89
34124;BME280;13153;52.316;21.166;2023-03-13T03:53:48;99734.78;;;6.94;51.76
34124;BME280;13153;52.316;21.166;2023-03-13T03:56:14;99726.91;;;6.94;51.75
34124;BME280;13153;52.316;21.166;2023-03-13T03:58:40;99724.41;;;6.97;51.99
34124;BME280;13153;52.316;21.166;2023-03-13T04:01:06;99714.72;;;6.95;51.86
34124;BME280;13153;52.316;21.166;2023-03-13T04:03:31;99713.16;;;7.00;52.05
34124;BME280;13153;52.316;21.166;2023-03-13T04:05:57;99714.34;;;6.81;52.21
34124;BME280;13153;52.316;21.166;2023-03-13T04:08:24;99711.81;;;6.84;52.74
34124;BME280;13153;52.316;21.166;2023-03-13T04:10:50;99697.03;;;6.85;52.43
34124;BME280;13153;52.316;21.166;2023-03-13T04:13:16;99700.56;;;6.87;52.56
34124;BME280;13153;52.316;21.166;2023-03-13T04:15:42;99701.28;;;6.81;52.42
34124;BME280;13153;52.316;21.166;2023-03-13T04:18:08;99696.56;;;6.70;52.67
34124;BME280;13153;52.316;21.166;2023-03-13T04:20:34;99696.56;;;6.70;52.80
34124;BME280;13153;52.316;21.166;2023-03-13T04:23:00;99697.03;;;6.85;53.08
34124;BME280;13153;52.316;21.166;2023-03-13T04:25:26;99704.13;;;6.89;52.53
34124;BME280;13153;52.316;21.166;2023-03-13T04:27:52;99703.34;;;6.91;52.90
34124;BME280;13153;52.316;21.166;2023-03-13T04:30:18;99694.88;;;6.72;53.40
34124;BME280;13153;52.316;21.166;2023-03-13T04:32:43;99689.84;;;6.78;54.07
34124;BME280;13153;52.316;21.166;2023-03-13T04:35:09;99680.53;;;6.87;53.71
34124;BME280;13153;52.316;21.166;2023-03-13T04:37:35;99687.59;;;6.90;54.09
34124;BME280;13153;52.316;21.166;2023-03-13T04:40:01;99683.22;;;6.89;54.47
34124;BME280;13153;52.316;21.166;2023-03-13T04:42:27;99690.13;;;6.87;55.26
34124;BME280;13153;52.316;21.166;2023-03-13T04:44:53;99690.03;;;6.84;55.24
34124;BME280;13153;52.316;21.166;2023-03-13T04:47:19;99682.13;;;6.82;55.50
34124;BME280;13153;52.316;21.166;2023-03-13T04:49:45;99679.66;;;6.87;55.37
34124;BME280;13153;52.316;21.166;2023-03-13T04:52:10;99675.41;;;6.90;55.71
34124;BME280;13153;52.316;21.166;2023-03-13T04:54:37;99666.50;;;6.84;55.63
34124;BME280;13153;52.316;21.166;2023-03-13T04:57:03;99674.25;;;6.81;55.66
34124;BME280;13153;52.316;21.166;2023-03-13T04:59:30;99668.22;;;6.83;55.99
34124;BME280;13153;52.316;21.166;2023-03-13T05:01:55;99675.41;;;6.90;55.86
34124;BME280;13153;52.316;21.166;2023-03-13T05:04:21;99674.81;;;7.01;55.73
34124;BME280;13153;52.316;21.166;2023-03-13T05:06:47;99669.72;;;7.05;55.57
34124;BME280;13153;52.316;21.166;2023-03-13T05:09:13;99663.53;;;7.03;55.42
34124;BME280;13153;52.316;21.166;2023-03-13T05:11:39;99671.31;;;7.00;55.88
34124;BME280;13153;52.316;21.166;2023-03-13T05:14:07;99665.13;;;6.98;55.44
34124;BME280;13153;52.316;21.166;2023-03-13T05:16:36;99663.59;;;7.05;55.76
34124;BME280;13153;52.316;21.166;2023-03-13T05:19:02;99647.84;;;7.03;56.17
34124;BME280;13153;52.316;21.166;2023-03-13T05:21:28;99662.88;;;7.10;56.02
34124;BME280;13153;52.316;21.166;2023-03-13T05:23:54;99660.13;;;7.06;55.72
34124;BME280;13153;52.316;21.166;2023-03-13T05:26:19;99655.75;;;7.05;55.90
34124;BME280;13153;52.316;21.166;2023-03-13T05:28:45;99666.38;;;7.11;56.23
34124;BME280;13153;52.316;21.166;2023-03-13T05:31:11;99653.34;;;7.12;56.14
34124;BME280;13153;52.316;21.166;2023-03-13T05:33:37;99649.66;;;7.06;56.47
34124;BME280;13153;52.316;21.166;2023-03-13T05:36:03;99644.22;;;6.98;56.58
34124;BME280;13153;52.316;21.166;2023-03-13T05:38:29;99653.22;;;7.08;56.56
34124;BME280;13153;52.316;21.166;2023-03-13T05:40:54;99647.84;;;7.03;56.86
34124;BME280;13153;52.316;21.166;2023-03-13T05:43:20;99646.84;;;6.98;57.23
34124;BME280;13153;52.316;21.166;2023-03-13T05:45:46;99662.63;;;7.01;57.44
34124;BME280;13153;52.316;21.166;2023-03-13T05:48:12;99659.34;;;7.08;57.13
34124;BME280;13153;52.316;21.166;2023-03-13T05:50:38;99664.66;;;7.11;57.48
34124;BME280;13153;52.316;21.166;2023-03-13T05:53:03;99664.88;;;7.19;56.82
34124;BME280;13153;52.316;21.166;2023-03-13T05:55:29;99677.16;;;7.21;57.29
34124;BME280;13153;52.316;21.166;2023-03-13T05:57:55;99672.00;;;7.24;56.69
34124;BME280;13153;52.316;21.166;2023-03-13T06:00:21;99666.06;;;7.30;56.79
34124;BME280;13153;52.316;21.166;2023-03-13T06:02:47;99665.34;;;7.36;56.75
34124;BME280;13153;52.316;21.166;2023-03-13T06:05:13;99665.94;;;7.25;56.85
34124;BME280;13153;52.316;21.166;2023-03-13T06:07:39;99659.13;;;7.32;57.33
34124;BME280;13153;52.316;21.166;2023-03-13T06:10:05;99646.94;;;7.33;56.87
34124;BME280;13153;52.316;21.166;2023-03-13T06:12:31;99648.53;;;7.27;57.27
34124;BME280;13153;52.316;21.166;2023-03-13T06:14:57;99654.72;;;7.29;57.63
34124;BME280;13153;52.316;21.166;2023-03-13T06:17:23;99654.00;;;7.35;57.39
34124;BME280;13153;52.316;21.166;2023-03-13T06:19:50;99653.28;;;7.41;57.53
34124;BME280;13153;52.316;21.166;2023-03-13T06:22:16;99650.63;;;7.39;58.08
34124;BME280;13153;52.316;21.166;2023-03-13T06:24:42;99656.31;;;7.24;58.68
34124;BME280;13153;52.316;21.166;2023-03-13T06:27:10;99647.88;;;7.35;58.70
34124;BME280;13153;52.316;21.166;2023-03-13T06:29:35;99646.31;;;7.41;58.63
34124;BME280;13153;52.316;21.166;2023-03-13T06:32:01;99643.69;;;7.41;58.64
34124;BME280;13153;52.316;21.166;2023-03-13T06:34:27;99650.81;;;7.47;58.40
34124;BME280;13153;52.316;21.166;2023-03-13T06:36:53;99649.78;;;7.40;59.44
34124;BME280;13153;52.316;21.166;2023-03-13T06:39:19;99652.44;;;7.42;59.53
34124;BME280;13153;52.316;21.166;2023-03-13T06:41:45;99654.41;;;7.52;59.50
34124;BME280;13153;52.316;21.166;2023-03-13T06:44:10;99647.53;;;7.55;59.58
34124;BME280;13153;52.316;21.166;2023-03-13T06:46:36;99647.69;;;7.61;59.90
34124;BME280;13153;52.316;21.166;2023-03-13T06:49:02;99647.56;;;7.57;60.41
34124;BME280;13153;52.316;21.166;2023-03-13T06:51:31;99640.72;;;7.62;60.01
34124;BME280;13153;52.316;21.166;2023-03-13T06:53:57;99632.06;;;7.65;60.32
34124;BME280;13153;52.316;21.166;2023-03-13T06:56:23;99640.84;;;7.67;60.61
34124;BME280;13153;52.316;21.166;2023-03-13T06:58:49;99632.00;;;7.61;61.28
34124;BME280;13153;52.316;21.166;2023-03-13T07:01:16;99632.97;;;7.65;61.40
34124;BME280;13153;52.316;21.166;2023-03-13T07:03:43;99634.03;;;7.73;61.62
34124;BME280;13153;52.316;21.166;2023-03-13T07:06:10;99636.06;;;7.83;61.80
34124;BME280;13153;52.316;21.166;2023-03-13T07:08:37;99629.97;;;7.84;61.88
34124;BME280;13153;52.316;21.166;2023-03-13T07:11:09;99627.25;;;7.80;61.95
34124;BME280;13153;52.316;21.166;2023-03-13T07:13:36;99625.66;;;7.86;61.98
34124;BME280;13153;52.316;21.166;2023-03-13T07:16:05;99629.00;;;7.81;62.20
34124;BME280;13153;52.316;21.166;2023-03-13T07:18:33;99634.25;;;7.81;62.43
34124;BME280;13153;52.316;21.166;2023-03-13T07:21:01;99628.34;;;7.89;62.18
34124;BME280;13153;52.316;21.166;2023-03-13T07:23:31;99626.69;;;7.93;62.49
34124;BME280;13153;52.316;21.166;2023-03-13T07:26:01;99630.19;;;7.93;63.09
34124;BME280;13153;52.316;21.166;2023-03-13T07:28:28;99621.34;;;7.88;62.59
34124;BME280;13153;52.316;21.166;2023-03-13T07:31:11;99636.28;;;7.92;63.40
34124;BME280;13153;52.316;21.166;2023-03-13T07:33:37;99625.00;;;7.95;63.00
34124;BME280;13153;52.316;21.166;2023-03-13T07:36:04;99628.72;;;8.05;63.18
34124;BME280;13153;52.316;21.166;2023-03-13T07:38:30;99625.38;;;8.12;63.27
34124;BME280;13153;52.316;21.166;2023-03-13T07:40:57;99617.56;;;8.13;63.24
34124;BME280;13153;52.316;21.166;2023-03-13T07:43:24;99608.63;;;8.04;62.95
34124;BME280;13153;52.316;21.166;2023-03-13T07:45:56;99616.59;;;8.08;62.54
34124;BME280;13153;52.316;21.166;2023-03-13T07:48:25;99611.34;;;8.10;62.53
34124;BME280;13153;52.316;21.166;2023-03-13T07:50:54;99606.19;;;8.13;62.71
34124;BME280;13153;52.316;21.166;2023-03-13T07:53:20;99602.94;;;8.23;62.34
34124;BME280;13153;52.316;21.166;2023-03-13T07:56:04;99605.38;;;8.15;62.49
34124;BME280;13153;52.316;21.166;2023-03-13T07:58:34;99600.44;;;8.27;62.01
34124;BME280;13153;52.316;21.166;2023-03-13T08:01:07;99592.56;;;8.27;61.63
34124;BME280;13153;52.316;21.166;2023-03-13T08:03:33;99591.78;;;8.32;61.63
34124;BME280;13153;52.316;21.166;2023-03-13T08:06:08;99589.41;;;8.41;61.72
34124;BME280;13153;52.316;21.166;2023-03-13T08:08:35;99584.34;;;8.48;61.61
34124;BME280;13153;52.316;21.166;2023-03-13T08:11:14;99587.53;;;8.35;61.92
34124;BME280;13153;52.316;21.166;2023-03-13T08:13:41;99593.84;;;8.43;61.69
34124;BME280;13153;52.316;21.166;2023-03-13T08:16:14;99587.03;;;8.51;61.72
34124;BME280;13153;52.316;21.166;2023-03-13T08:18:43;99572.56;;;8.72;61.66
34124;BME280;13153;52.316;21.166;2023-03-13T08:21:16;99578.22;;;8.91;61.15
34124;BME280;13153;52.316;21.166;2023-03-13T08:23:43;99576.91;;;9.13;60.61
34124;BME280;13153;52.316;21.166;2023-03-13T08:26:19;99581.84;;;9.45;60.46
34124;BME280;13153;52.316;21.166;2023-03-13T08:28:50;99579.56;;;9.63;59.96
34124;BME280;13153;52.316;21.166;2023-03-13T08:31:20;99572.75;;;9.74;58.63
34124;BME280;13153;52.316;21.166;2023-03-13T08:33:47;99578.09;;;9.80;58.08
34124;BME280;13153;52.316;21.166;2023-03-13T08:36:25;99578.06;;;9.79;58.58
34124;BME280;13153;52.316;21.166;2023-03-13T08:38:53;99580.81;;;9.88;58.43
34124;BME280;13153;52.316;21.166;2023-03-13T08:41:26;99573.81;;;9.88;57.94
34124;BME280;13153;52.316;21.166;2023-03-13T08:43:55;99573.66;;;9.76;58.52
34124;BME280;13153;52.316;21.166;2023-03-13T08:46:22;99569.19;;;9.71;58.45
34124;BME280;13153;52.316;21.166;2023-03-13T08:48:50;99568.13;;;9.59;58.91
34124;BME280;13153;52.316;21.166;2023-03-13T08:51:16;99564.56;;;9.56;59.01
34124;BME280;13153;52.316;21.166;2023-03-13T08:53:43;99562.72;;;9.52;59.24
34124;BME280;13153;52.316;21.166;2023-03-13T08:56:14;99555.88;;;9.60;58.82
34124;BME280;13153;52.316;21.166;2023-03-13T08:58:41;99545.34;;;9.58;58.91
34124;BME280;13153;52.316;21.166;2023-03-13T09:01:13;99539.09;;;9.52;59.23
34124;BME280;13153;52.316;21.166;2023-03-13T09:03:40;99539.25;;;9.61;58.87
34124;BME280;13153;52.316;21.166;2023-03-13T09:06:07;99529.59;;;9.60;59.16
34124;BME280;13153;52.316;21.166;2023-03-13T09:08:34;99518.25;;;9.61;59.60
34124;BME280;13153;52.316;21.166;2023-03-13T09:11:15;99520.91;;;9.63;59.77
34124;BME280;13153;52.316;21.166;2023-03-13T09:13:45;99507.06;;;9.73;59.12
34124;BME280;13153;52.316;21.166;2023-03-13T09:16:19;99510.69;;;9.84;59.36
34124;BME280;13153;52.316;21.166;2023-03-13T09:18:45;99497.94;;;10.10;59.02
34124;BME280;13153;52.316;21.166;2023-03-13T09:21:18;99496.63;;;10.42;58.42
34124;BME280;13153;52.316;21.166;2023-03-13T09:23:44;99491.69;;;10.67;57.94
34124;BME280;13153;52.316;21.166;2023-03-13T09:26:11;99490.94;;;10.77;57.36
34124;BME280;13153;52.316;21.166;2023-03-13T09:28:37;99481.44;;;10.89;57.10
34124;BME280;13153;52.316;21.166;2023-03-13T09:31:16;99483.31;;;11.04;56.72
34124;BME280;13153;52.316;21.166;2023-03-13T09:33:44;99476.34;;;11.09;56.71
34124;BME280;13153;52.316;21.166;2023-03-13T09:36:11;99471.97;;;11.13;56.95
34124;BME280;13153;52.316;21.166;2023-03-13T09:38:37;99481.84;;;11.34;56.87
34124;BME280;13153;52.316;21.166;2023-03-13T09:41:38;99475.88;;;11.59;56.16
34124;BME280;13153;52.316;21.166;2023-03-13T09:44:23;99471.59;;;11.73;55.61
34124;BME280;13153;52.316;21.166;2023-03-13T09:49:52;99461.22;;;11.92;55.25
34124;BME280;13153;52.316;21.166;2023-03-13T09:52:26;99459.53;;;12.06;54.93
34124;BME280;13153;52.316;21.166;2023-03-13T09:55:20;99451.63;;;12.04;55.18
34124;BME280;13153;52.316;21.166;2023-03-13T09:58:07;99453.41;;;12.16;54.95
34124;BME280;13153;52.316;21.166;2023-03-13T10:00:40;99441.16;;;12.24;54.98
34124;BME280;13153;52.316;21.166;2023-03-13T10:06:03;99430.63;;;12.33;54.70
34124;BME280;13153;52.316;21.166;2023-03-13T10:08:33;99435.94;;;12.41;54.72
34124;BME280;13153;52.316;21.166;2023-03-13T10:11:03;99422.78;;;12.50;54.31
34124;BME280;13153;52.316;21.166;2023-03-13T10:13:48;99424.59;;;12.62;54.74
34124;BME280;13153;52.316;21.166;2023-03-13T10:16:40;99424.59;;;12.74;55.12
34124;BME280;13153;52.316;21.166;2023-03-13T10:19:15;99414.06;;;12.89;54.93
34124;BME280;13153;52.316;21.166;2023-03-13T10:21:45;99407.91;;;12.93;54.92
34124;BME280;13153;52.316;21.166;2023-03-13T10:25:01;99400.88;;;13.01;54.74
34124;BME280;13153;52.316;21.166;2023-03-13T10:27:28;99401.78;;;13.12;54.47
34124;BME280;13153;52.316;21.166;2023-03-13T10:29:53;99412.38;;;13.25;54.62
34124;BME280;13153;52.316;21.166;2023-03-13T10:32:19;99400.06;;;13.28;54.59
34124;BME280;13153;52.316;21.166;2023-03-13T10:35:00;99400.91;;;13.36;54.14
34124;BME280;13153;52.316;21.166;2023-03-13T10:37:41;99403.53;;;13.33;54.33
34124;BME280;13153;52.316;21.166;2023-03-13T10:40:27;99400.03;;;13.42;54.31
34124;BME280;13153;52.316;21.166;2023-03-13T10:43:12;99385.91;;;13.52;54.41
34124;BME280;13153;52.316;21.166;2023-03-13T10:45:38;99388.56;;;13.53;53.72
34124;BME280;13153;52.316;21.166;2023-03-13T10:48:18;99385.91;;;13.67;53.90
34124;BME280;13153;52.316;21.166;2023-03-13T10:50:49;99388.53;;;13.66;55.04
34124;BME280;13153;52.316;21.166;2023-03-13T10:56:13;99378.81;;;13.81;54.62
34124;BME280;13153;52.316;21.166;2023-03-13T10:58:46;99375.22;;;13.90;55.63
34124;BME280;13153;52.316;21.166;2023-03-13T11:01:40;99367.34;;;13.82;55.12
34124;BME280;13153;52.316;21.166;2023-03-13T11:04:32;99361.19;;;13.77;55.01
34124;BME280;13153;52.316;21.166;2023-03-13T11:07:24;99353.25;;;13.77;55.27
34124;BME280;13153;52.316;21.166;2023-03-13T11:10:02;99361.09;;;13.97;54.71
34124;BME280;13153;52.316;21.166;2023-03-13T11:12:34;99351.34;;;14.11;54.83
34124;BME280;13153;52.316;21.166;2023-03-13T11:15:05;99331.94;;;14.15;55.11
34124;BME280;13153;52.316;21.166;2023-03-13T11:17:39;99331.00;;;14.24;54.60
34124;BME280;13153;52.316;21.166;2023-03-13T11:20:22;99332.75;;;14.28;54.54
34124;BME280;13153;52.316;21.166;2023-03-13T11:22:54;99330.13;;;14.24;54.47
34124;BME280;13153;52.316;21.166;2023-03-13T11:31:34;99311.59;;;14.28;53.80
34124;BME280;13153;52.316;21.166;2023-03-13T11:34:22;99288.66;;;14.30;53.09
34124;BME280;13153;52.316;21.166;2023-03-13T11:36:59;99293.00;;;14.37;52.96
34124;BME280;13153;52.316;21.166;2023-03-13T11:40:14;99308.88;;;14.43;52.24
34124;BME280;13153;52.316;21.166;2023-03-13T11:57:43;99244.94;;;14.94;50.62
34124;BME280;13153;52.316;21.166;2023-03-13T12:00:32;99232.50;;;15.02;49.43
34124;BME280;13153;52.316;21.166;2023-03-13T12:03:19;99236.97;;;14.94;49.74
34124;BME280;13153;52.316;21.166;2023-03-13T12:05:56;99246.69;;;14.93;49.29
34124;BME280;13153;52.316;21.166;2023-03-13T12:08:27;99226.41;;;14.92;49.61
34124;BME280;13153;52.316;21.166;2023-03-13T12:11:21;99234.16;;;15.07;49.43
34124;BME280;13153;52.316;21.166;2023-03-13T12:14:15;99232.31;;;15.15;49.01
34124;BME280;13153;52.316;21.166;2023-03-13T12:16:52;99229.66;;;15.17;48.72
34124;BME280;13153;52.316;21.166;2023-03-13T12:19:33;99233.25;;;15.11;48.89
34124;BME280;13153;52.316;21.166;2023-03-13T12:22:18;99232.28;;;15.18;48.77
34124;BME280;13153;52.316;21.166;2023-03-13T12:24:54;99226.00;;;15.29;49.14
34124;BME280;13153;52.316;21.166;2023-03-13T12:27:38;99208.41;;;15.22;48.65
34124;BME280;13153;52.316;21.166;2023-03-13T12:35:46;99210.97;;;15.29;49.46
34124;BME280;13153;52.316;21.166;2023-03-13T12:38:25;99211.19;;;15.08;50.01
34124;BME280;13153;52.316;21.166;2023-03-13T12:41:17;99210.16;;;15.23;50.27
34124;BME280;13153;52.316;21.166;2023-03-13T12:43:50;99198.72;;;15.20;50.75
34124;BME280;13153;52.316;21.166;2023-03-13T12:46:36;99216.56;;;15.03;50.45
34124;BME280;13153;52.316;21.166;2023-03-13T13:00:26;99191.94;;;14.95;52.70
34124;BME280;13153;52.316;21.166;2023-03-13T13:03:30;99180.56;;;14.84;53.56
34124;BME280;13153;52.316;21.166;2023-03-13T13:06:11;99181.53;;;14.77;53.61
34124;BME280;13153;52.316;21.166;2023-03-13T13:14:04;99158.69;;;14.67;54.53
34124;BME280;13153;52.316;21.166;2023-03-13T13:16:53;99156.06;;;14.62;54.96
34124;BME280;13153;52.316;21.166;2023-03-13T13:32:39;99154.53;;;14.38;57.47
34124;BME280;13153;52.316;21.166;2023-03-13T13:37:41;99136.06;;;14.32;57.99
34124;BME280;13153;52.316;21.166;2023-03-13T13:40:28;99141.31;;;14.37;58.67
34124;BME280;13153;52.316;21.166;2023-03-13T13:43:03;99124.59;;;14.32;58.53
34124;BME280;13153;52.316;21.166;2023-03-13T13:45:35;99121.09;;;14.28;58.41
34124;BME280;13153;52.316;21.166;2023-03-13T13:48:33;99118.50;;;14.20;59.15
34124;BME280;13153;52.316;21.166;2023-03-13T13:53:44;99122.03;;;14.19;60.02
34124;BME280;13153;52.316;21.166;2023-03-13T13:56:31;99114.25;;;14.00;60.37
34124;BME280;13153;52.316;21.166;2023-03-13T14:01:47;99123.09;;;13.99;61.71
34124;BME280;13153;52.316;21.166;2023-03-13T14:04:29;99124.81;;;14.03;61.85
34124;BME280;13153;52.316;21.166;2023-03-13T14:07:02;99117.81;;;13.96;61.99
34124;BME280;13153;52.316;21.166;2023-03-13T14:09:57;99124.03;;;13.90;62.37
34124;BME280;13153;52.316;21.166;2023-03-13T14:12:36;99110.00;;;13.85;62.97
34124;BME280;13153;52.316;21.166;2023-03-13T14:15:24;99103.88;;;13.80;63.16
34124;BME280;13153;52.316;21.166;2023-03-13T14:17:54;99091.50;;;13.83;63.28
34124;BME280;13153;52.316;21.166;2023-03-13T14:20:27;99088.84;;;13.83;63.71
34124;BME280;13153;52.316;21.166;2023-03-13T14:22:57;99094.06;;;13.88;63.83
34124;BME280;13153;52.316;21.166;2023-03-13T14:25:25;99075.66;;;13.80;64.00
34124;BME280;13153;52.316;21.166;2023-03-13T14:27:54;99082.75;;;13.75;63.94
34124;BME280;13153;52.316;21.166;2023-03-13T14:30:22;99078.38;;;13.71;63.80
34124;BME280;13153;52.316;21.166;2023-03-13T14:32:50;99086.25;;;13.79;64.14
34124;BME280;13153;52.316;21.166;2023-03-13T14:35:19;99076.53;;;13.81;64.22
34124;BME280;13153;52.316;21.166;2023-03-13T14:37:50;99076.50;;;13.85;64.21
34124;BME280;13153;52.316;21.166;2023-03-13T14:40:24;99065.09;;;13.79;64.04
34124;BME280;13153;52.316;21.166;2023-03-13T14:42:58;99059.81;;;13.77;63.99
34124;BME280;13153;52.316;21.166;2023-03-13T14:45:33;99062.47;;;13.79;64.49